sensor_id;sensor_type;location;lat;lon;timestamp;P1;durP1;ratioP1;P2;durP2;ratioP2
21301;SDS011;10810;48.270;9.996;2023-03-23T00:01:56;4.53;;;2.27;;
21301;SDS011;10810;48.270;9.996;2023-03-23T00:04:24;4.93;;;2.40;;
21301;SDS011;10810;48.270;9.996;2023-03-23T00:06:52;5.07;;;2.27;;
21301;SDS011;10810;48.270;9.996;2023-03-23T00:09:20;3.97;;;2.27;;
21301;SDS011;10810;48.270;9.996;2023-03-23T00:11:49;4.50;;;2.20;;
21301;SDS011;10810;48.270;9.996;2023-03-23T00:14:17;4.63;;;2.20;;
21301;SDS011;10810;48.270;9.996;2023-03-23T00:16:57;5.53;;;2.00;;
21301;SDS011;10810;48.270;9.996;2023-03-23T00:19:53;5.20;;;2.50;;
21301;SDS011;10810;48.270;9.996;2023-03-23T00:22:23;8.40;;;2.40;;
21301;SDS011;10810;48.270;9.996;2023-03-23T00:24:52;6.00;;;2.17;;
21301;SDS011;10810;48.270;9.996;2023-03-23T00:27:23;5.33;;;2.10;;
21301;SDS011;10810;48.270;9.996;2023-03-23T00:29:51;6.37;;;2.20;;
21301;SDS011;10810;48.270;9.996;2023-03-23T00:32:20;6.83;;;2.40;;
21301;SDS011;10810;48.270;9.996;2023-03-23T00:34:53;5.40;;;2.40;;
21301;SDS011;10810;48.270;9.996;2023-03-23T00:37:21;3.70;;;2.00;;
21301;SDS011;10810;48.270;9.996;2023-03-23T00:39:48;5.43;;;2.43;;
21301;SDS011;10810;48.270;9.996;2023-03-23T00:42:17;5.30;;;2.30;;
21301;SDS011;10810;48.270;9.996;2023-03-23T00:45:02;5.67;;;2.60;;
21301;SDS011;10810;48.270;9.996;2023-03-23T00:47:39;5.70;;;2.23;;
21301;SDS011;10810;48.270;9.996;2023-03-23T00:50:08;11.13;;;2.50;;
21301;SDS011;10810;48.270;9.996;2023-03-23T00:52:38;4.30;;;2.00;;
21301;SDS011;10810;48.270;9.996;2023-03-23T00:55:31;5.70;;;2.53;;
21301;SDS011;10810;48.270;9.996;2023-03-23T00:57:59;4.40;;;2.17;;
21301;SDS011;10810;48.270;9.996;2023-03-23T01:00:26;6.27;;;2.60;;
21301;SDS011;10810;48.270;9.996;2023-03-23T01:05:46;8.67;;;3.27;;
21301;SDS011;10810;48.270;9.996;2023-03-23T01:08:16;6.30;;;2.90;;
21301;SDS011;10810;48.270;9.996;2023-03-23T01:10:46;7.57;;;3.03;;
21301;SDS011;10810;48.270;9.996;2023-03-23T01:13:14;5.67;;;2.80;;
21301;SDS011;10810;48.270;9.996;2023-03-23T01:15:43;7.50;;;2.87;;
21301;SDS011;10810;48.270;9.996;2023-03-23T01:18:13;8.60;;;3.40;;
21301;SDS011;10810;48.270;9.996;2023-03-23T01:20:42;7.00;;;2.60;;
21301;SDS011;10810;48.270;9.996;2023-03-23T01:23:09;7.37;;;2.80;;
21301;SDS011;10810;48.270;9.996;2023-03-23T01:25:40;7.90;;;2.50;;
21301;SDS011;10810;48.270;9.996;2023-03-23T01:28:10;7.00;;;2.63;;
21301;SDS011;10810;48.270;9.996;2023-03-23T01:30:39;6.00;;;2.67;;
21301;SDS011;10810;48.270;9.996;2023-03-23T01:33:09;7.53;;;3.30;;
21301;SDS011;10810;48.270;9.996;2023-03-23T01:35:42;5.87;;;3.00;;
21301;SDS011;10810;48.270;9.996;2023-03-23T01:38:23;6.47;;;2.80;;
21301;SDS011;10810;48.270;9.996;2023-03-23T01:40:57;6.07;;;2.73;;
21301;SDS011;10810;48.270;9.996;2023-03-23T01:43:26;6.47;;;2.60;;
21301;SDS011;10810;48.270;9.996;2023-03-23T01:46:02;7.77;;;3.13;;
21301;SDS011;10810;48.270;9.996;2023-03-23T01:48:30;6.73;;;2.80;;
21301;SDS011;10810;48.270;9.996;2023-03-23T01:51:06;8.47;;;2.90;;
21301;SDS011;10810;48.270;9.996;2023-03-23T01:53:36;7.90;;;3.10;;
21301;SDS011;10810;48.270;9.996;2023-03-23T01:56:06;6.83;;;3.00;;
21301;SDS011;10810;48.270;9.996;2023-03-23T01:58:36;6.23;;;3.07;;
21301;SDS011;10810;48.270;9.996;2023-03-23T02:01:05;7.77;;;3.17;;
21301;SDS011;10810;48.270;9.996;2023-03-23T02:03:37;6.50;;;3.07;;
21301;SDS011;10810;48.270;9.996;2023-03-23T02:06:08;8.70;;;3.20;;
21301;SDS011;10810;48.270;9.996;2023-03-23T02:08:35;6.70;;;2.97;;
21301;SDS011;10810;48.270;9.996;2023-03-23T02:11:11;9.80;;;3.40;;
21301;SDS011;10810;48.270;9.996;2023-03-23T02:13:41;8.50;;;3.30;;
21301;SDS011;10810;48.270;9.996;2023-03-23T02:16:09;8.03;;;3.40;;
21301;SDS011;10810;48.270;9.996;2023-03-23T02:18:57;7.20;;;3.20;;
21301;SDS011;10810;48.270;9.996;2023-03-23T02:21:50;7.10;;;3.17;;
21301;SDS011;10810;48.270;9.996;2023-03-23T02:24:43;5.97;;;2.80;;
21301;SDS011;10810;48.270;9.996;2023-03-23T02:27:33;7.53;;;3.30;;
21301;SDS011;10810;48.270;9.996;2023-03-23T02:30:23;9.37;;;3.10;;
21301;SDS011;10810;48.270;9.996;2023-03-23T02:36:01;6.03;;;2.80;;
21301;SDS011;10810;48.270;9.996;2023-03-23T02:38:35;9.33;;;2.80;;
21301;SDS011;10810;48.270;9.996;2023-03-23T02:41:07;6.83;;;2.90;;
21301;SDS011;10810;48.270;9.996;2023-03-23T02:43:46;8.23;;;3.60;;
21301;SDS011;10810;48.270;9.996;2023-03-23T02:46:23;8.73;;;3.20;;
21301;SDS011;10810;48.270;9.996;2023-03-23T02:48:54;6.40;;;2.87;;
21301;SDS011;10810;48.270;9.996;2023-03-23T02:53:01;6.37;;;2.90;;
21301;SDS011;10810;48.270;9.996;2023-03-23T02:54:41;5.73;;;2.83;;
21301;SDS011;10810;48.270;9.996;2023-03-23T02:57:16;5.60;;;2.83;;
21301;SDS011;10810;48.270;9.996;2023-03-23T02:59:47;6.33;;;2.97;;
21301;SDS011;10810;48.270;9.996;2023-03-23T03:02:22;6.63;;;2.80;;
21301;SDS011;10810;48.270;9.996;2023-03-23T03:04:54;6.80;;;3.10;;
21301;SDS011;10810;48.270;9.996;2023-03-23T03:07:40;6.00;;;2.90;;
21301;SDS011;10810;48.270;9.996;2023-03-23T03:10:25;8.70;;;3.23;;
21301;SDS011;10810;48.270;9.996;2023-03-23T03:13:00;8.17;;;3.00;;
21301;SDS011;10810;48.270;9.996;2023-03-23T03:15:34;7.93;;;3.33;;
21301;SDS011;10810;48.270;9.996;2023-03-23T03:18:05;8.30;;;3.57;;
21301;SDS011;10810;48.270;9.996;2023-03-23T03:20:40;6.47;;;2.87;;
21301;SDS011;10810;48.270;9.996;2023-03-23T03:23:11;7.70;;;3.10;;
21301;SDS011;10810;48.270;9.996;2023-03-23T03:25:42;7.67;;;3.10;;
21301;SDS011;10810;48.270;9.996;2023-03-23T03:30:46;7.87;;;3.40;;
21301;SDS011;10810;48.270;9.996;2023-03-23T03:33:25;6.60;;;3.03;;
21301;SDS011;10810;48.270;9.996;2023-03-23T03:36:00;7.37;;;3.40;;
21301;SDS011;10810;48.270;9.996;2023-03-23T03:38:29;9.50;;;3.20;;
21301;SDS011;10810;48.270;9.996;2023-03-23T03:41:07;6.80;;;3.17;;
21301;SDS011;10810;48.270;9.996;2023-03-23T03:43:34;7.30;;;3.20;;
21301;SDS011;10810;48.270;9.996;2023-03-23T03:46:02;7.00;;;2.90;;
21301;SDS011;10810;48.270;9.996;2023-03-23T03:48:29;7.40;;;3.30;;
21301;SDS011;10810;48.270;9.996;2023-03-23T03:50:58;7.83;;;3.20;;
21301;SDS011;10810;48.270;9.996;2023-03-23T03:53:31;8.60;;;3.10;;
21301;SDS011;10810;48.270;9.996;2023-03-23T03:56:00;5.93;;;2.93;;
21301;SDS011;10810;48.270;9.996;2023-03-23T03:58:28;5.77;;;2.57;;
21301;SDS011;10810;48.270;9.996;2023-03-23T04:01:07;7.40;;;3.10;;
21301;SDS011;10810;48.270;9.996;2023-03-23T04:03:36;6.57;;;2.70;;
21301;SDS011;10810;48.270;9.996;2023-03-23T04:06:05;7.13;;;2.63;;
21301;SDS011;10810;48.270;9.996;2023-03-23T04:08:34;5.33;;;2.43;;
21301;SDS011;10810;48.270;9.996;2023-03-23T04:11:02;6.00;;;2.60;;
21301;SDS011;10810;48.270;9.996;2023-03-23T04:13:30;5.53;;;2.57;;
21301;SDS011;10810;48.270;9.996;2023-03-23T04:15:57;7.60;;;2.77;;
21301;SDS011;10810;48.270;9.996;2023-03-23T04:18:31;6.20;;;2.73;;
21301;SDS011;10810;48.270;9.996;2023-03-23T04:21:02;6.67;;;3.00;;
21301;SDS011;10810;48.270;9.996;2023-03-23T04:23:34;7.83;;;2.97;;
21301;SDS011;10810;48.270;9.996;2023-03-23T04:26:04;7.30;;;2.30;;
21301;SDS011;10810;48.270;9.996;2023-03-23T04:28:33;4.97;;;2.27;;
21301;SDS011;10810;48.270;9.996;2023-03-23T04:31:03;5.03;;;2.23;;
21301;SDS011;10810;48.270;9.996;2023-03-23T04:33:34;4.07;;;2.13;;
21301;SDS011;10810;48.270;9.996;2023-03-23T04:36:02;4.50;;;2.20;;
21301;SDS011;10810;48.270;9.996;2023-03-23T04:38:32;6.27;;;2.40;;
21301;SDS011;10810;48.270;9.996;2023-03-23T04:41:04;5.63;;;2.50;;
21301;SDS011;10810;48.270;9.996;2023-03-23T04:43:32;6.53;;;2.60;;
21301;SDS011;10810;48.270;9.996;2023-03-23T04:46:07;4.43;;;2.10;;
21301;SDS011;10810;48.270;9.996;2023-03-23T04:48:35;7.10;;;2.10;;
21301;SDS011;10810;48.270;9.996;2023-03-23T04:51:05;5.17;;;2.27;;
21301;SDS011;10810;48.270;9.996;2023-03-23T04:53:33;5.03;;;2.20;;
21301;SDS011;10810;48.270;9.996;2023-03-23T04:56:02;5.83;;;2.50;;
21301;SDS011;10810;48.270;9.996;2023-03-23T04:58:30;6.67;;;2.60;;
21301;SDS011;10810;48.270;9.996;2023-03-23T05:00:58;6.00;;;2.80;;
21301;SDS011;10810;48.270;9.996;2023-03-23T05:03:26;4.27;;;2.10;;
21301;SDS011;10810;48.270;9.996;2023-03-23T05:05:53;4.93;;;2.40;;
21301;SDS011;10810;48.270;9.996;2023-03-23T05:08:20;6.93;;;2.43;;
21301;SDS011;10810;48.270;9.996;2023-03-23T05:10:52;3.53;;;2.07;;
21301;SDS011;10810;48.270;9.996;2023-03-23T05:13:20;4.67;;;2.27;;
21301;SDS011;10810;48.270;9.996;2023-03-23T05:15:47;5.10;;;1.83;;
21301;SDS011;10810;48.270;9.996;2023-03-23T05:18:15;4.23;;;2.00;;
21301;SDS011;10810;48.270;9.996;2023-03-23T05:20:42;4.20;;;1.80;;
21301;SDS011;10810;48.270;9.996;2023-03-23T05:23:11;4.20;;;1.70;;
21301;SDS011;10810;48.270;9.996;2023-03-23T05:25:39;5.03;;;2.10;;
21301;SDS011;10810;48.270;9.996;2023-03-23T05:28:08;4.37;;;2.07;;
21301;SDS011;10810;48.270;9.996;2023-03-23T05:30:37;4.17;;;1.90;;
21301;SDS011;10810;48.270;9.996;2023-03-23T05:33:05;4.30;;;2.00;;
21301;SDS011;10810;48.270;9.996;2023-03-23T05:35:32;3.97;;;2.23;;
21301;SDS011;10810;48.270;9.996;2023-03-23T05:38:04;6.53;;;2.80;;
21301;SDS011;10810;48.270;9.996;2023-03-23T05:40:34;14.53;;;4.07;;
21301;SDS011;10810;48.270;9.996;2023-03-23T05:43:01;4.87;;;2.30;;
21301;SDS011;10810;48.270;9.996;2023-03-23T05:45:32;5.43;;;2.53;;
21301;SDS011;10810;48.270;9.996;2023-03-23T05:48:02;6.97;;;3.00;;
21301;SDS011;10810;48.270;9.996;2023-03-23T05:50:32;6.30;;;2.73;;
21301;SDS011;10810;48.270;9.996;2023-03-23T05:52:59;4.37;;;1.90;;
21301;SDS011;10810;48.270;9.996;2023-03-23T05:55:26;5.33;;;1.90;;
21301;SDS011;10810;48.270;9.996;2023-03-23T05:57:55;7.33;;;2.10;;
21301;SDS011;10810;48.270;9.996;2023-03-23T06:00:28;3.50;;;1.57;;
21301;SDS011;10810;48.270;9.996;2023-03-23T06:03:01;4.50;;;1.90;;
21301;SDS011;10810;48.270;9.996;2023-03-23T06:05:28;4.10;;;2.07;;
21301;SDS011;10810;48.270;9.996;2023-03-23T06:07:55;4.63;;;2.47;;
21301;SDS011;10810;48.270;9.996;2023-03-23T06:10:22;9.57;;;3.70;;
21301;SDS011;10810;48.270;9.996;2023-03-23T06:12:53;8.63;;;3.77;;
21301;SDS011;10810;48.270;9.996;2023-03-23T06:15:20;8.83;;;4.07;;
21301;SDS011;10810;48.270;9.996;2023-03-23T06:17:47;8.67;;;3.70;;
21301;SDS011;10810;48.270;9.996;2023-03-23T06:20:34;7.57;;;3.40;;
21301;SDS011;10810;48.270;9.996;2023-03-23T06:23:09;6.20;;;3.00;;
21301;SDS011;10810;48.270;9.996;2023-03-23T06:25:38;6.73;;;3.37;;
21301;SDS011;10810;48.270;9.996;2023-03-23T06:28:06;7.07;;;3.00;;
21301;SDS011;10810;48.270;9.996;2023-03-23T06:30:35;9.70;;;3.07;;
21301;SDS011;10810;48.270;9.996;2023-03-23T06:33:03;7.23;;;2.33;;
21301;SDS011;10810;48.270;9.996;2023-03-23T06:35:30;6.23;;;2.77;;
21301;SDS011;10810;48.270;9.996;2023-03-23T06:37:59;4.77;;;2.60;;
21301;SDS011;10810;48.270;9.996;2023-03-23T06:40:26;7.33;;;3.50;;
21301;SDS011;10810;48.270;9.996;2023-03-23T06:43:07;6.60;;;3.43;;
21301;SDS011;10810;48.270;9.996;2023-03-23T06:45:34;5.27;;;2.77;;
21301;SDS011;10810;48.270;9.996;2023-03-23T06:48:01;8.20;;;3.27;;
21301;SDS011;10810;48.270;9.996;2023-03-23T06:50:28;13.60;;;4.33;;
21301;SDS011;10810;48.270;9.996;2023-03-23T06:53:00;10.57;;;4.30;;
21301;SDS011;10810;48.270;9.996;2023-03-23T06:55:29;7.93;;;3.57;;
21301;SDS011;10810;48.270;9.996;2023-03-23T06:57:58;9.73;;;3.77;;
21301;SDS011;10810;48.270;9.996;2023-03-23T07:00:28;8.70;;;3.70;;
21301;SDS011;10810;48.270;9.996;2023-03-23T07:03:01;11.80;;;3.97;;
21301;SDS011;10810;48.270;9.996;2023-03-23T07:05:29;11.27;;;3.93;;
21301;SDS011;10810;48.270;9.996;2023-03-23T07:07:56;7.80;;;3.80;;
21301;SDS011;10810;48.270;9.996;2023-03-23T07:10:27;9.07;;;4.03;;
21301;SDS011;10810;48.270;9.996;2023-03-23T07:12:54;8.37;;;3.73;;
21301;SDS011;10810;48.270;9.996;2023-03-23T07:15:21;7.80;;;3.67;;
21301;SDS011;10810;48.270;9.996;2023-03-23T07:17:51;8.33;;;3.67;;
21301;SDS011;10810;48.270;9.996;2023-03-23T07:20:26;9.60;;;4.10;;
21301;SDS011;10810;48.270;9.996;2023-03-23T07:22:53;10.33;;;4.50;;
21301;SDS011;10810;48.270;9.996;2023-03-23T07:25:20;12.70;;;4.33;;
21301;SDS011;10810;48.270;9.996;2023-03-23T07:27:49;10.50;;;3.97;;
21301;SDS011;10810;48.270;9.996;2023-03-23T07:30:17;9.10;;;3.53;;
21301;SDS011;10810;48.270;9.996;2023-03-23T07:32:46;4.90;;;2.50;;
21301;SDS011;10810;48.270;9.996;2023-03-23T07:35:13;5.27;;;2.80;;
21301;SDS011;10810;48.270;9.996;2023-03-23T07:37:41;5.87;;;2.67;;
21301;SDS011;10810;48.270;9.996;2023-03-23T07:40:11;4.83;;;2.37;;
21301;SDS011;10810;48.270;9.996;2023-03-23T07:42:43;4.47;;;2.17;;
21301;SDS011;10810;48.270;9.996;2023-03-23T07:45:19;6.23;;;2.63;;
21301;SDS011;10810;48.270;9.996;2023-03-23T07:47:46;7.20;;;2.03;;
21301;SDS011;10810;48.270;9.996;2023-03-23T07:50:24;6.67;;;2.27;;
21301;SDS011;10810;48.270;9.996;2023-03-23T07:52:54;4.17;;;1.93;;
21301;SDS011;10810;48.270;9.996;2023-03-23T07:55:25;4.53;;;2.30;;
21301;SDS011;10810;48.270;9.996;2023-03-23T08:03:49;4.33;;;2.17;;
21301;SDS011;10810;48.270;9.996;2023-03-23T08:06:18;4.37;;;1.93;;
21301;SDS011;10810;48.270;9.996;2023-03-23T08:08:59;4.13;;;2.13;;
21301;SDS011;10810;48.270;9.996;2023-03-23T08:11:32;5.00;;;2.30;;
21301;SDS011;10810;48.270;9.996;2023-03-23T08:14:08;4.23;;;2.20;;
21301;SDS011;10810;48.270;9.996;2023-03-23T08:16:37;4.60;;;1.97;;
21301;SDS011;10810;48.270;9.996;2023-03-23T08:19:06;4.13;;;2.40;;
21301;SDS011;10810;48.270;9.996;2023-03-23T08:21:33;4.10;;;2.10;;
21301;SDS011;10810;48.270;9.996;2023-03-23T08:24:01;3.90;;;2.00;;
21301;SDS011;10810;48.270;9.996;2023-03-23T08:26:36;3.90;;;2.00;;
21301;SDS011;10810;48.270;9.996;2023-03-23T08:29:03;6.33;;;2.93;;
21301;SDS011;10810;48.270;9.996;2023-03-23T08:31:33;6.77;;;3.10;;
21301;SDS011;10810;48.270;9.996;2023-03-23T08:36:55;8.77;;;3.30;;
21301;SDS011;10810;48.270;9.996;2023-03-23T08:39:39;6.90;;;3.60;;
21301;SDS011;10810;48.270;9.996;2023-03-23T08:42:08;4.33;;;2.23;;
21301;SDS011;10810;48.270;9.996;2023-03-23T08:44:36;4.50;;;2.57;;
21301;SDS011;10810;48.270;9.996;2023-03-23T08:47:05;4.53;;;2.40;;
21301;SDS011;10810;48.270;9.996;2023-03-23T08:49:34;5.13;;;2.17;;
21301;SDS011;10810;48.270;9.996;2023-03-23T08:52:19;4.67;;;2.27;;
21301;SDS011;10810;48.270;9.996;2023-03-23T08:54:48;4.43;;;2.07;;
21301;SDS011;10810;48.270;9.996;2023-03-23T08:57:15;6.10;;;2.30;;
21301;SDS011;10810;48.270;9.996;2023-03-23T08:59:45;5.73;;;2.10;;
21301;SDS011;10810;48.270;9.996;2023-03-23T09:02:14;6.90;;;2.17;;
21301;SDS011;10810;48.270;9.996;2023-03-23T09:04:46;3.30;;;1.90;;
21301;SDS011;10810;48.270;9.996;2023-03-23T09:07:14;3.93;;;2.10;;
21301;SDS011;10810;48.270;9.996;2023-03-23T09:09:45;5.67;;;2.13;;
21301;SDS011;10810;48.270;9.996;2023-03-23T09:12:17;6.10;;;2.03;;
21301;SDS011;10810;48.270;9.996;2023-03-23T09:14:46;3.87;;;2.00;;
21301;SDS011;10810;48.270;9.996;2023-03-23T09:17:25;3.57;;;1.90;;
21301;SDS011;10810;48.270;9.996;2023-03-23T09:19:56;3.80;;;2.07;;
21301;SDS011;10810;48.270;9.996;2023-03-23T09:22:25;4.03;;;2.17;;
21301;SDS011;10810;48.270;9.996;2023-03-23T09:24:56;3.37;;;2.10;;
21301;SDS011;10810;48.270;9.996;2023-03-23T09:27:41;4.40;;;2.23;;
21301;SDS011;10810;48.270;9.996;2023-03-23T09:30:12;4.60;;;1.97;;
21301;SDS011;10810;48.270;9.996;2023-03-23T09:32:40;3.90;;;1.97;;
21301;SDS011;10810;48.270;9.996;2023-03-23T09:35:18;4.87;;;2.20;;
21301;SDS011;10810;48.270;9.996;2023-03-23T09:37:47;3.50;;;2.10;;
21301;SDS011;10810;48.270;9.996;2023-03-23T09:40:15;4.20;;;2.10;;
21301;SDS011;10810;48.270;9.996;2023-03-23T09:42:57;5.13;;;2.43;;
21301;SDS011;10810;48.270;9.996;2023-03-23T09:45:46;4.70;;;2.37;;
21301;SDS011;10810;48.270;9.996;2023-03-23T09:48:28;6.73;;;2.27;;
21301;SDS011;10810;48.270;9.996;2023-03-23T09:51:07;6.53;;;2.30;;
21301;SDS011;10810;48.270;9.996;2023-03-23T09:53:41;5.67;;;2.03;;
21301;SDS011;10810;48.270;9.996;2023-03-23T09:56:15;4.17;;;2.27;;
21301;SDS011;10810;48.270;9.996;2023-03-23T09:58:46;3.30;;;1.90;;
21301;SDS011;10810;48.270;9.996;2023-03-23T10:01:19;3.17;;;2.00;;
21301;SDS011;10810;48.270;9.996;2023-03-23T10:03:51;3.67;;;2.00;;
21301;SDS011;10810;48.270;9.996;2023-03-23T10:06:25;5.43;;;2.00;;
21301;SDS011;10810;48.270;9.996;2023-03-23T10:08:57;5.47;;;2.30;;
21301;SDS011;10810;48.270;9.996;2023-03-23T10:11:32;4.03;;;2.20;;
21301;SDS011;10810;48.270;9.996;2023-03-23T10:14:25;5.60;;;2.00;;
21301;SDS011;10810;48.270;9.996;2023-03-23T10:16:59;3.33;;;2.10;;
21301;SDS011;10810;48.270;9.996;2023-03-23T10:19:46;4.97;;;2.43;;
21301;SDS011;10810;48.270;9.996;2023-03-23T10:22:19;5.47;;;2.43;;
21301;SDS011;10810;48.270;9.996;2023-03-23T10:24:54;3.73;;;2.00;;
21301;SDS011;10810;48.270;9.996;2023-03-23T10:27:25;3.73;;;1.93;;
21301;SDS011;10810;48.270;9.996;2023-03-23T10:30:00;3.00;;;1.83;;
21301;SDS011;10810;48.270;9.996;2023-03-23T10:32:39;3.30;;;2.00;;
21301;SDS011;10810;48.270;9.996;2023-03-23T10:35:11;3.40;;;1.87;;
21301;SDS011;10810;48.270;9.996;2023-03-23T10:37:50;3.70;;;1.80;;
21301;SDS011;10810;48.270;9.996;2023-03-23T10:40:23;2.90;;;1.70;;
21301;SDS011;10810;48.270;9.996;2023-03-23T10:43:09;2.47;;;1.60;;
21301;SDS011;10810;48.270;9.996;2023-03-23T10:45:37;6.03;;;1.67;;
21301;SDS011;10810;48.270;9.996;2023-03-23T10:48:11;7.80;;;2.43;;
21301;SDS011;10810;48.270;9.996;2023-03-23T10:50:54;2.93;;;1.67;;
21301;SDS011;10810;48.270;9.996;2023-03-23T10:56:34;2.77;;;1.50;;
21301;SDS011;10810;48.270;9.996;2023-03-23T10:59:11;2.70;;;1.50;;
21301;SDS011;10810;48.270;9.996;2023-03-23T11:01:45;2.90;;;1.50;;
21301;SDS011;10810;48.270;9.996;2023-03-23T11:04:17;3.40;;;1.57;;
21301;SDS011;10810;48.270;9.996;2023-03-23T11:06:58;2.30;;;1.40;;
21301;SDS011;10810;48.270;9.996;2023-03-23T11:09:37;4.20;;;1.33;;
21301;SDS011;10810;48.270;9.996;2023-03-23T11:12:15;2.57;;;1.37;;
21301;SDS011;10810;48.270;9.996;2023-03-23T11:14:44;3.73;;;1.50;;
21301;SDS011;10810;48.270;9.996;2023-03-23T11:17:19;3.27;;;1.70;;
21301;SDS011;10810;48.270;9.996;2023-03-23T11:19:50;3.37;;;1.70;;
21301;SDS011;10810;48.270;9.996;2023-03-23T11:22:26;3.20;;;1.50;;
21301;SDS011;10810;48.270;9.996;2023-03-23T11:24:59;2.77;;;1.50;;
21301;SDS011;10810;48.270;9.996;2023-03-23T11:27:28;2.10;;;1.20;;
21301;SDS011;10810;48.270;9.996;2023-03-23T11:29:56;2.90;;;1.50;;
21301;SDS011;10810;48.270;9.996;2023-03-23T11:32:28;3.40;;;1.43;;
21301;SDS011;10810;48.270;9.996;2023-03-23T11:35:07;2.53;;;1.30;;
21301;SDS011;10810;48.270;9.996;2023-03-23T11:37:47;2.63;;;1.30;;
21301;SDS011;10810;48.270;9.996;2023-03-23T11:40:20;2.47;;;1.50;;
21301;SDS011;10810;48.270;9.996;2023-03-23T11:42:49;3.70;;;1.60;;
21301;SDS011;10810;48.270;9.996;2023-03-23T11:45:31;3.10;;;1.50;;
21301;SDS011;10810;48.270;9.996;2023-03-23T11:59:50;2.50;;;1.50;;
21301;SDS011;10810;48.270;9.996;2023-03-23T12:02:24;3.50;;;1.60;;
21301;SDS011;10810;48.270;9.996;2023-03-23T12:05:26;7.03;;;1.80;;
21301;SDS011;10810;48.270;9.996;2023-03-23T12:08:14;3.80;;;1.57;;
21301;SDS011;10810;48.270;9.996;2023-03-23T12:10:52;2.60;;;1.50;;
21301;SDS011;10810;48.270;9.996;2023-03-23T12:13:29;4.67;;;1.43;;
21301;SDS011;10810;48.270;9.996;2023-03-23T12:16:23;2.67;;;1.60;;
21301;SDS011;10810;48.270;9.996;2023-03-23T12:19:06;6.07;;;1.60;;
21301;SDS011;10810;48.270;9.996;2023-03-23T12:21:47;3.50;;;1.50;;
21301;SDS011;10810;48.270;9.996;2023-03-23T12:24:26;3.13;;;1.60;;
21301;SDS011;10810;48.270;9.996;2023-03-23T12:27:06;2.80;;;1.50;;
21301;SDS011;10810;48.270;9.996;2023-03-23T12:29:44;3.10;;;1.60;;
21301;SDS011;10810;48.270;9.996;2023-03-23T12:32:23;2.40;;;1.30;;
21301;SDS011;10810;48.270;9.996;2023-03-23T12:35:09;3.33;;;1.53;;
21301;SDS011;10810;48.270;9.996;2023-03-23T12:37:50;3.27;;;1.53;;
21301;SDS011;10810;48.270;9.996;2023-03-23T12:43:33;2.90;;;1.60;;
21301;SDS011;10810;48.270;9.996;2023-03-23T12:46:12;2.40;;;1.53;;
21301;SDS011;10810;48.270;9.996;2023-03-23T12:48:54;5.23;;;1.80;;
21301;SDS011;10810;48.270;9.996;2023-03-23T12:51:27;3.93;;;1.63;;
21301;SDS011;10810;48.270;9.996;2023-03-23T12:54:03;5.40;;;1.97;;
21301;SDS011;10810;48.270;9.996;2023-03-23T12:56:44;2.53;;;1.60;;
21301;SDS011;10810;48.270;9.996;2023-03-23T12:59:36;2.77;;;1.70;;
21301;SDS011;10810;48.270;9.996;2023-03-23T13:02:23;3.37;;;1.80;;
21301;SDS011;10810;48.270;9.996;2023-03-23T13:04:58;5.00;;;1.70;;
21301;SDS011;10810;48.270;9.996;2023-03-23T13:07:32;2.43;;;1.30;;
21301;SDS011;10810;48.270;9.996;2023-03-23T13:10:02;2.80;;;1.20;;
21301;SDS011;10810;48.270;9.996;2023-03-23T13:12:34;5.03;;;1.90;;
21301;SDS011;10810;48.270;9.996;2023-03-23T13:15:06;3.07;;;1.63;;
21301;SDS011;10810;48.270;9.996;2023-03-23T13:17:46;3.63;;;1.70;;
21301;SDS011;10810;48.270;9.996;2023-03-23T13:20:32;3.67;;;1.50;;
21301;SDS011;10810;48.270;9.996;2023-03-23T13:23:08;5.87;;;2.00;;
21301;SDS011;10810;48.270;9.996;2023-03-23T13:25:43;3.17;;;1.50;;
21301;SDS011;10810;48.270;9.996;2023-03-23T13:28:17;3.00;;;1.50;;
21301;SDS011;10810;48.270;9.996;2023-03-23T13:30:53;3.87;;;1.60;;
21301;SDS011;10810;48.270;9.996;2023-03-23T13:33:32;6.67;;;1.53;;
21301;SDS011;10810;48.270;9.996;2023-03-23T13:36:08;3.53;;;1.63;;
21301;SDS011;10810;48.270;9.996;2023-03-23T13:38:37;3.77;;;1.80;;
21301;SDS011;10810;48.270;9.996;2023-03-23T13:41:06;3.00;;;1.87;;
21301;SDS011;10810;48.270;9.996;2023-03-23T13:43:42;3.43;;;1.70;;
21301;SDS011;10810;48.270;9.996;2023-03-23T13:46:13;4.13;;;1.90;;
21301;SDS011;10810;48.270;9.996;2023-03-23T13:49:03;5.70;;;2.00;;
21301;SDS011;10810;48.270;9.996;2023-03-23T13:51:52;2.63;;;1.60;;
21301;SDS011;10810;48.270;9.996;2023-03-23T13:54:30;4.33;;;1.50;;
21301;SDS011;10810;48.270;9.996;2023-03-23T13:57:19;2.83;;;1.70;;
21301;SDS011;10810;48.270;9.996;2023-03-23T13:59:56;2.73;;;1.60;;
21301;SDS011;10810;48.270;9.996;2023-03-23T14:02:38;3.90;;;1.77;;
21301;SDS011;10810;48.270;9.996;2023-03-23T14:08:11;2.53;;;1.57;;
21301;SDS011;10810;48.270;9.996;2023-03-23T14:10:48;2.60;;;1.60;;
21301;SDS011;10810;48.270;9.996;2023-03-23T14:13:19;3.07;;;1.60;;
21301;SDS011;10810;48.270;9.996;2023-03-23T14:15:54;2.53;;;1.50;;
21301;SDS011;10810;48.270;9.996;2023-03-23T14:18:25;3.73;;;1.63;;
21301;SDS011;10810;48.270;9.996;2023-03-23T14:20:56;2.40;;;1.30;;
21301;SDS011;10810;48.270;9.996;2023-03-23T14:23:25;2.97;;;1.50;;
21301;SDS011;10810;48.270;9.996;2023-03-23T14:25:56;4.20;;;1.60;;
21301;SDS011;10810;48.270;9.996;2023-03-23T14:28:30;2.90;;;1.60;;
21301;SDS011;10810;48.270;9.996;2023-03-23T14:30:58;2.73;;;1.60;;
21301;SDS011;10810;48.270;9.996;2023-03-23T14:33:25;4.63;;;1.70;;
21301;SDS011;10810;48.270;9.996;2023-03-23T14:35:53;3.60;;;1.43;;
21301;SDS011;10810;48.270;9.996;2023-03-23T14:38:23;3.97;;;1.70;;
21301;SDS011;10810;48.270;9.996;2023-03-23T14:40:59;4.10;;;1.73;;
21301;SDS011;10810;48.270;9.996;2023-03-23T14:43:31;2.83;;;1.30;;
21301;SDS011;10810;48.270;9.996;2023-03-23T14:46:00;3.37;;;1.70;;
21301;SDS011;10810;48.270;9.996;2023-03-23T14:48:31;3.10;;;1.60;;
21301;SDS011;10810;48.270;9.996;2023-03-23T14:50:59;3.27;;;1.67;;
21301;SDS011;10810;48.270;9.996;2023-03-23T14:53:32;2.67;;;1.63;;
21301;SDS011;10810;48.270;9.996;2023-03-23T14:56:03;2.90;;;1.60;;
21301;SDS011;10810;48.270;9.996;2023-03-23T14:58:35;4.40;;;1.70;;
21301;SDS011;10810;48.270;9.996;2023-03-23T15:01:05;4.03;;;1.87;;
21301;SDS011;10810;48.270;9.996;2023-03-23T15:03:35;3.80;;;1.80;;
21301;SDS011;10810;48.270;9.996;2023-03-23T15:06:06;3.47;;;1.80;;
21301;SDS011;10810;48.270;9.996;2023-03-23T15:08:39;6.17;;;1.80;;
21301;SDS011;10810;48.270;9.996;2023-03-23T15:11:07;2.77;;;1.67;;
21301;SDS011;10810;48.270;9.996;2023-03-23T15:13:41;3.93;;;1.80;;
21301;SDS011;10810;48.270;9.996;2023-03-23T15:16:12;3.60;;;1.90;;
21301;SDS011;10810;48.270;9.996;2023-03-23T15:18:46;3.57;;;1.77;;
21301;SDS011;10810;48.270;9.996;2023-03-23T15:21:20;3.47;;;1.80;;
21301;SDS011;10810;48.270;9.996;2023-03-23T15:23:50;4.07;;;1.70;;
21301;SDS011;10810;48.270;9.996;2023-03-23T15:26:28;5.60;;;1.83;;
21301;SDS011;10810;48.270;9.996;2023-03-23T15:29:03;3.60;;;1.67;;
21301;SDS011;10810;48.270;9.996;2023-03-23T15:31:41;4.80;;;1.80;;
21301;SDS011;10810;48.270;9.996;2023-03-23T15:34:12;4.83;;;2.53;;
21301;SDS011;10810;48.270;9.996;2023-03-23T15:36:58;5.60;;;2.63;;
21301;SDS011;10810;48.270;9.996;2023-03-23T15:39:28;6.73;;;2.30;;
21301;SDS011;10810;48.270;9.996;2023-03-23T15:41:56;7.57;;;3.30;;
21301;SDS011;10810;48.270;9.996;2023-03-23T15:44:26;7.90;;;3.10;;
21301;SDS011;10810;48.270;9.996;2023-03-23T15:47:03;4.77;;;2.13;;
21301;SDS011;10810;48.270;9.996;2023-03-23T15:49:40;6.40;;;2.80;;
21301;SDS011;10810;48.270;9.996;2023-03-23T15:52:08;3.83;;;1.70;;
21301;SDS011;10810;48.270;9.996;2023-03-23T15:54:38;3.23;;;1.70;;
21301;SDS011;10810;48.270;9.996;2023-03-23T15:57:11;3.70;;;1.80;;
21301;SDS011;10810;48.270;9.996;2023-03-23T15:59:40;6.03;;;1.90;;
21301;SDS011;10810;48.270;9.996;2023-03-23T16:02:09;3.23;;;1.80;;